Latest Weather Observations for Roseworthy

IDS60801

Issued at 8:11 pm CST Thursday 24 September 2020 (issued every 10 minutes, with the page automatically refreshed every 10 minutes)

About weather observations | Map of weather stations | Latest weather observations for SA | Other Formats
Station Details ID: 023122 Name: ROSEWORTHY AWS Lat: -34.51 Lon: 138.68 Height: 65.0 m
Data from the previous 72 hours. | See also: Recent months at Roseworthy
Date/Time
CST
Temp
°C
App
Temp
°C
Dew
Point
°C
Rel
Hum
%
Delta-T
°C
Wind Press
QNH
hPa
Press
MSL
hPa
Rain since
9am
mm
Dir  Spd
km/h
Gust
km/h
Spd
kts
Gust
kts
24/08:00pm 8.2 4.7 7.0 92 0.6 W 15 19 8 10 1010.2 1010.2 5.2
24/07:30pm 8.5 4.3 7.3 92 0.6 W 19 26 10 14 1010.3 1010.3 5.2
24/07:00pm 8.3 5.3 7.5 95 0.4 WNW 13 15 7 8 1010.3 1010.3 5.2
24/06:30pm 8.5 4.3 7.4 93 0.5 WSW 19 26 10 14 1010.2 1010.2 5.2
24/06:15pm 8.8 2.9 7.6 92 0.6 WSW 28 46 15 25 1010.2 1010.2 5.2
24/06:00pm 9.6 5.5 8.0 90 0.8 W 19 24 10 13 1010.1 1010.1 5.0
24/05:30pm 10.2 4.7 9.0 92 0.6 WSW 28 37 15 20 1009.9 1009.9 5.0
24/05:00pm 10.5 6.9 10.5 100 0.0 WNW 20 26 11 14 1009.9 1009.9 5.0
24/04:30pm 10.2 6.0 9.9 98 0.2 W 22 33 12 18 1009.8 1009.8 5.0
24/04:00pm 10.9 7.0 10.7 99 0.1 WNW 22 33 12 18 1009.9 1009.9 4.4
24/03:30pm 10.8 6.8 10.5 98 0.2 NW 22 32 12 17 1010.0 1010.0 4.2
24/03:00pm 10.1 4.0 9.8 98 0.2 WNW 32 41 17 22 1010.7 1010.7 3.6
24/02:45pm 10.6 5.4 10.3 98 0.2 WNW 28 46 15 25 1010.8 1010.8 2.6
24/02:30pm 10.5 5.2 9.9 96 0.3 WNW 28 39 15 21 1010.9 1010.9 2.0
24/02:05pm 12.3 5.6 7.2 71 2.5 WNW 32 50 17 27 1010.6 1010.6 0.0
24/02:00pm 13.3 7.4 7.7 69 2.8 WNW 28 39 15 21 1010.5 1010.5 0.0
24/01:30pm 15.0 8.4 6.0 55 4.3 NW 30 46 16 25 1010.9 1010.9 0.0
24/01:00pm 15.3 8.2 6.6 56 4.2 NW 33 50 18 27 1011.6 1011.6 0.0
24/12:30pm 16.3 9.3 7.0 54 4.6 NW 33 44 18 24 1012.3 1012.3 0.0
24/12:20pm 15.9 8.8 6.6 54 4.6 NW 33 52 18 28 1012.5 1012.5 0.0
24/12:00pm 16.3 9.5 7.5 56 4.4 NW 33 46 18 25 1013.1 1013.1 0.0
24/11:30am 14.9 8.5 7.0 59 3.9 WNW 30 43 16 23 1014.0 1014.0 0.0
24/11:17am 14.9 9.2 8.2 64 3.4 WNW 28 46 15 25 1014.1 1014.1 0.0
24/11:00am 13.8 7.5 7.3 65 3.2 WNW 30 39 16 21 1014.7 1014.7 0.0
24/10:30am 12.9 7.1 7.8 71 2.5 WNW 28 37 15 20 1015.3 1015.3 0.0
24/10:00am 13.1 8.7 9.0 76 2.1 WNW 22 32 12 17 1015.9 1015.9 0.0
24/09:30am 12.5 7.3 9.0 79 1.8 NW 26 35 14 19 1016.3 1016.3 0.0
24/09:05am 12.2 7.0 10.3 88 1.0 NW 28 46 15 25 1016.7 1016.7 0.0
24/09:00am 11.5 5.3 9.2 86 1.2 NW 32 46 17 25 1016.7 1016.7 3.6
24/08:30am 11.0 6.7 10.7 98 0.2 NW 24 33 13 18 1017.0 1017.0 3.6
24/08:00am 9.8 5.6 9.8 100 0.0 NW 22 33 12 18 1017.2 1017.2 3.6
24/07:30am 9.2 5.8 9.2 100 0.0 NNW 17 22 9 12 1017.2 1017.2 3.4
24/07:00am 8.4 5.2 8.4 100 0.0 NNW 15 22 8 12 1017.2 1017.2 3.4
24/06:30am 8.2 5.7 8.2 100 0.0 NNW 11 17 6 9 1017.1 1017.1 3.4
24/06:00am 8.3 5.4 8.3 100 0.0 N 13 17 7 9 1017.1 1017.1 2.4
24/05:30am 8.5 5.7 8.5 100 0.0 NW 13 17 7 9 1017.2 1017.2 2.2
24/05:00am 8.5 5.3 8.5 100 0.0 NNW 15 20 8 11 1017.3 1017.3 2.2
24/04:30am 8.2 5.3 8.2 100 0.0 NNW 13 17 7 9 1017.4 1017.4 2.2
24/04:00am 8.5 5.3 8.5 100 0.0 NW 15 20 8 11 1017.5 1017.5 1.8
24/03:30am 8.5 4.9 8.5 100 0.0 NNW 17 22 9 12 1017.6 1017.6 1.8
24/03:00am 8.5 5.7 8.5 100 0.0 NNW 13 19 7 10 1017.8 1017.8 1.8
24/02:30am 8.5 6.0 8.4 99 0.0 NNW 11 15 6 8 1018.0 1018.0 1.8
24/02:00am 8.8 5.9 8.0 95 0.4 NW 13 17 7 9 1018.5 1018.5 1.6
24/01:30am 8.4 6.5 7.5 94 0.4 NNW 7 13 4 7 1018.7 1018.7 1.6
24/01:00am 8.2 5.9 7.4 95 0.4 NNW 9 11 5 6 1019.0 1019.0 1.6
24/12:30am 7.7 5.3 7.1 96 0.3 N 9 11 5 6 1019.4 1019.4 1.6
24/12:00am 7.2 4.8 6.8 97 0.2 NW 9 11 5 6 1019.7 1019.7 1.6
 
Date/Time
CST
Temp
°C
App
Temp
°C
Dew
Point
°C
Rel
Hum
%
Delta-T
°C
Wind Press
QNH
hPa
Press
MSL
hPa
Rain since
9am
mm
Dir  Spd
km/h
Gust
km/h
Spd
kts
Gust
kts
23/11:30pm 6.2 3.2 5.9 98 0.1 NW 11 13 6 7 1019.8 1019.8 1.6
23/11:00pm 4.7 0.8 3.5 92 0.5 NW 13 15 7 8 1020.0 1020.0 1.6
23/10:30pm 5.4 2.0 3.9 90 0.6 W 11 13 6 7 1020.2 1020.2 1.6
23/10:00pm 6.5 2.8 4.2 85 1.0 W 13 15 7 8 1020.5 1020.5 1.6
23/09:30pm 8.3 5.0 4.3 76 1.7 WSW 11 13 6 7 1020.8 1020.8 1.6
23/09:00pm 10.3 5.9 4.7 68 2.5 WSW 17 22 9 12 1020.7 1020.7 1.6
23/08:30pm 10.9 6.2 5.2 68 2.6 WSW 19 26 10 14 1020.6 1020.6 1.6
23/08:00pm 11.6 6.4 5.5 66 2.8 WSW 22 33 12 18 1020.5 1020.5 1.6
23/07:30pm 11.1 7.3 6.0 71 2.4 WSW 15 20 8 11 1020.4 1020.4 1.6
23/07:00pm 10.3 6.8 5.5 72 2.2 WSW 13 17 7 9 1020.1 1020.1 1.6
23/06:30pm 10.9 7.5 5.7 70 2.4 WSW 13 19 7 10 1020.0 1020.0 1.6
23/06:00pm 11.9 7.0 5.3 64 3.0 SW 20 26 11 14 1019.6 1019.6 1.6
23/05:30pm 13.0 7.0 5.2 59 3.6 SW 26 37 14 20 1019.5 1019.5 1.6
23/05:00pm 13.7 7.4 5.6 58 3.8 SW 28 39 15 21 1019.3 1019.3 1.6
23/04:30pm 13.7 7.0 5.8 59 3.7 WSW 30 41 16 22 1019.1 1019.1 1.6
23/04:00pm 14.0 8.1 7.3 64 3.3 SW 28 41 15 22 1019.0 1019.0 1.6
23/03:30pm 13.9 7.9 7.2 64 3.3 SW 28 43 15 23 1018.8 1018.8 1.6
23/03:00pm 14.0 7.7 7.3 64 3.3 SW 30 43 16 23 1018.8 1018.8 1.6
23/02:35pm 13.5 7.6 7.7 68 2.9 SW 28 50 15 27 1018.8 1018.8 1.6
23/02:30pm 13.8 8.3 7.6 66 3.1 SW 26 43 14 23 1018.8 1018.8 1.6
23/02:00pm 13.7 7.6 8.3 70 2.7 SW 30 44 16 24 1018.9 1018.9 1.6
23/01:35pm 14.1 8.5 8.7 70 2.7 SW 28 46 15 25 1018.9 1018.9 1.6
23/01:30pm 13.7 8.6 9.2 74 2.3 SW 26 39 14 21 1018.9 1018.9 1.6
23/01:00pm 12.1 8.1 10.3 89 0.9 SW 22 33 12 18 1019.2 1019.2 1.6
23/12:30pm 11.7 6.1 10.1 90 0.8 SW 30 46 16 25 1019.6 1019.6 1.0
23/12:24pm 13.7 8.0 8.5 71 2.6 WSW 28 46 15 25 1019.4 1019.4 0.0
23/12:00pm 16.4 11.1 8.6 60 4.0 WSW 26 39 14 21 1019.1 1019.1 0.0
23/11:30am 15.9 10.3 8.9 63 3.6 WSW 28 37 15 20 1019.2 1019.2 0.0
23/11:00am 14.4 8.9 9.0 70 2.8 WSW 28 39 15 21 1019.4 1019.4 0.0
23/10:30am 13.8 8.2 8.6 71 2.6 WSW 28 39 15 21 1019.4 1019.4 0.0
23/10:00am 12.1 5.8 9.1 82 1.5 WSW 32 43 17 23 1019.4 1019.4 0.0
23/09:30am 13.9 8.9 9.7 76 2.2 WSW 26 41 14 22 1019.2 1019.2 0.0
23/09:00am 12.7 7.7 9.7 82 1.5 W 26 33 14 18 1019.1 1019.1 2.2
23/08:30am 12.2 7.7 10.1 87 1.1 W 24 35 13 19 1019.0 1019.0 2.2
23/08:00am 11.8 8.2 10.7 93 0.6 WNW 20 35 11 19 1018.8 1018.8 2.2
23/07:30am 10.5 7.8 10.5 100 0.0 WNW 15 20 8 11 1018.7 1018.7 2.2
23/07:00am 9.6 6.7 9.6 100 0.0 WNW 15 19 8 10 1018.4 1018.4 2.2
23/06:30am 9.3 5.9 9.3 100 0.0 WNW 17 22 9 12 1018.0 1018.0 2.2
23/06:00am 9.4 5.5 9.4 100 0.0 WNW 20 28 11 15 1017.7 1017.7 2.2
23/05:30am 9.1 5.7 9.1 100 0.0 WNW 17 22 9 12 1017.3 1017.3 2.2
23/05:00am 8.6 4.7 8.6 100 0.0 WNW 19 22 10 12 1017.0 1017.0 2.0
23/04:30am 8.7 5.2 8.7 100 0.0 WNW 17 20 9 11 1016.8 1016.8 2.0
23/04:00am 8.5 5.3 8.5 100 0.0 NW 15 19 8 10 1016.8 1016.8 2.0
23/03:30am 8.4 5.6 8.4 100 0.0 NW 13 19 7 10 1016.7 1016.7 2.0
23/03:00am 8.1 5.2 8.1 100 0.0 NNW 13 19 7 10 1016.8 1016.8 1.8
23/02:30am 8.0 5.1 8.0 100 0.0 NNW 13 17 7 9 1016.9 1016.9 1.8
23/02:00am 8.4 5.6 8.4 100 0.0 NNW 13 19 7 10 1016.9 1016.9 1.8
23/01:30am 9.2 5.8 9.1 99 0.0 W 17 22 9 12 1016.9 1016.9 1.8
23/01:00am 9.8 6.6 9.8 100 0.0 W 17 24 9 13 1017.1 1017.1 1.0
23/12:30am 9.7 6.3 9.2 97 0.2 WNW 17 24 9 13 1017.3 1017.3 1.0
23/12:12am 9.8 4.4 9.5 98 0.1 W 28 41 15 22 1017.3 1017.3 1.0
23/12:00am 9.5 6.5 9.2 98 0.1 NW 15 19 8 10 1017.4 1017.4 0.2
 
Date/Time
CST
Temp
°C
App
Temp
°C
Dew
Point
°C
Rel
Hum
%
Delta-T
°C
Wind Press
QNH
hPa
Press
MSL
hPa
Rain since
9am
mm
Dir  Spd
km/h
Gust
km/h
Spd
kts
Gust
kts
22/11:30pm 9.8 6.4 9.2 96 0.3 WNW 17 22 9 12 1017.4 1017.4 0.0
22/11:00pm 9.6 6.5 8.7 94 0.4 WNW 15 20 8 11 1017.3 1017.3 0.0
22/10:30pm 9.3 6.7 9.2 99 0.0 WNW 13 17 7 9 1017.4 1017.4 0.0
22/10:00pm 7.2 4.4 6.8 97 0.2 NW 11 13 6 7 1017.6 1017.6 0.0
22/09:30pm 8.0 5.2 7.1 94 0.4 WNW 11 11 6 6 1017.6 1017.6 0.0
22/09:00pm 9.9 6.5 9.0 94 0.4 W 17 20 9 11 1017.4 1017.4 0.0
22/08:30pm 10.2 6.7 8.8 91 0.7 W 17 20 9 11 1017.2 1017.2 0.0
22/08:00pm 10.7 7.1 8.3 85 1.2 W 17 24 9 13 1016.9 1016.9 0.0
22/07:30pm 11.2 6.7 8.6 84 1.3 W 22 32 12 17 1016.3 1016.3 0.0
22/07:00pm 11.1 7.1 8.1 82 1.5 W 19 26 10 14 1015.9 1015.9 0.0
22/06:30pm 12.2 8.0 8.3 77 1.9 W 20 28 11 15 1015.5 1015.5 0.0
22/06:00pm 12.8 7.2 7.3 69 2.7 W 26 35 14 19 1015.3 1015.3 0.0
22/05:34pm 14.0 8.3 8.2 68 2.9 W 28 46 15 25 1015.0 1015.0 0.0
22/05:30pm 14.2 8.9 8.4 68 2.9 W 26 37 14 20 1014.9 1014.9 0.0
22/05:00pm 14.1 6.5 7.4 64 3.3 W 37 50 20 27 1014.7 1014.7 0.0
22/04:43pm 15.4 8.6 7.7 60 3.8 W 33 52 18 28 1014.5 1014.5 0.0
22/04:30pm 15.3 7.8 8.1 62 3.6 W 37 50 20 27 1014.4 1014.4 0.0
22/04:03pm 16.5 8.9 7.7 56 4.4 W 37 56 20 30 1013.9 1013.9 0.0
22/04:00pm 16.8 8.9 7.7 55 4.6 W 39 56 21 30 1013.9 1013.9 0.0
22/03:58pm 16.4 8.7 7.3 55 4.5 W 37 56 20 30 1013.9 1013.9 0.0
22/03:30pm 16.1 8.7 8.3 60 4.0 W 37 54 20 29 1013.9 1013.9 0.0
22/03:13pm 16.2 9.1 7.9 58 4.2 W 35 57 19 31 1013.7 1013.6 0.0
22/03:00pm 15.5 7.9 7.5 59 4.0 W 37 52 20 28 1013.8 1013.7 0.0
22/02:30pm 16.0 8.6 8.2 60 4.0 W 37 65 20 35 1013.5 1013.4 0.0
22/02:06pm 15.8 8.0 8.1 60 3.9 W 39 57 21 31 1013.5 1013.4 0.0
22/02:00pm 15.7 7.3 8.9 64 3.5 W 43 56 23 30 1013.3 1013.3 0.0
22/01:30pm 18.0 9.2 5.6 44 6.1 WNW 41 56 22 30 1012.8 1012.8 0.0
22/01:10pm 16.7 7.3 5.6 48 5.4 WNW 44 63 24 34 1012.9 1012.9 0.0
22/01:00pm 17.1 7.8 5.7 47 5.5 W 44 57 24 31 1013.0 1013.0 0.0
22/12:36pm 16.6 7.3 5.9 49 5.2 WNW 44 63 24 34 1013.0 1013.0 0.0
22/12:30pm 17.7 8.8 6.9 49 5.4 WNW 43 57 23 31 1012.9 1012.9 0.0
22/12:00pm 17.0 8.0 6.2 49 5.3 WNW 43 61 23 33 1012.9 1012.9 0.0
22/11:39am 17.9 9.0 6.7 48 5.6 WNW 43 61 23 33 1012.7 1012.7 0.0
22/11:30am 18.4 9.4 7.2 48 5.7 WNW 44 61 24 33 1012.8 1012.8 0.0
22/11:01am 17.7 8.7 7.4 51 5.2 W 44 65 24 35 1012.6 1012.6 0.0
22/11:00am 17.8 9.0 8.1 53 5.0 W 44 61 24 33 1012.6 1012.6 0.0
22/10:30am 15.3 8.0 10.1 71 2.7 WNW 39 52 21 28 1012.8 1012.8 0.0
22/10:00am 12.1 3.8 9.3 83 1.4 W 43 61 23 33 1012.8 1012.8 0.0
22/09:44am 14.7 6.2 6.8 59 3.9 WNW 41 59 22 32 1012.4 1012.4 0.0
22/09:30am 15.0 6.2 7.3 60 3.8 WNW 43 59 23 32 1012.3 1012.3 0.0
22/09:03am 15.0 7.3 8.5 65 3.3 WNW 39 57 21 31 1012.3 1012.3 0.0
22/09:00am 14.7 6.2 8.6 67 3.1 WNW 43 56 23 30 1012.2 1012.2 -
22/08:36am 15.1 8.0 9.7 70 2.8 WNW 37 56 20 30 1011.9 1011.9 -
22/08:30am 14.3 6.7 9.1 71 2.7 WNW 39 56 21 30 1011.8 1011.8 -
22/08:07am 13.5 8.2 9.7 78 2.0 NW 28 46 15 25 1011.7 1011.7 -
22/08:00am 13.1 7.0 9.7 80 1.7 WNW 32 44 17 24 1011.6 1011.6 -
22/07:30am 11.8 6.5 9.7 87 1.1 NW 28 39 15 21 1011.4 1011.4 -
22/07:00am 10.7 6.1 9.5 92 0.6 NW 24 33 13 18 1011.0 1011.0 -
22/06:30am 10.5 6.1 8.8 89 0.8 NW 22 33 12 18 1010.8 1010.8 -
22/06:00am 10.6 5.4 8.7 88 0.9 NW 26 35 14 19 1010.5 1010.5 -
22/05:30am 10.1 5.7 8.9 92 0.6 NW 22 30 12 16 1010.0 1010.0 -
22/05:00am 9.7 5.1 8.3 91 0.7 NW 22 32 12 17 1009.7 1009.7 -
22/04:30am 10.2 5.7 8.6 90 0.8 NW 22 30 12 16 1009.3 1009.3 -
22/04:00am 10.2 5.3 8.5 89 0.8 NW 24 32 13 17 1009.3 1009.3 0.2
22/03:30am 9.6 5.4 8.4 92 0.6 NW 20 28 11 15 1009.2 1009.2 0.2
22/03:00am 9.7 5.2 8.6 93 0.5 NW 22 28 12 15 1009.1 1009.1 0.2
22/02:30am 9.7 4.9 8.8 94 0.4 NW 24 33 13 18 1009.0 1009.0 0.2
22/02:00am 9.9 5.8 8.8 93 0.5 NW 20 28 11 15 1009.2 1009.2 0.2
22/01:30am 10.6 5.7 8.4 86 1.1 NW 24 35 13 19 1009.3 1009.3 0.2
22/01:00am 11.4 5.6 8.1 80 1.6 NW 28 37 15 20 1009.3 1009.3 0.2
22/12:30am 11.5 6.4 9.2 86 1.2 NW 26 35 14 19 1009.3 1009.3 0.2
22/12:00am 11.7 7.8 9.6 87 1.1 NW 20 32 11 17 1009.4 1009.4 0.2
 
Date/Time
CST
Temp
°C
App
Temp
°C
Dew
Point
°C
Rel
Hum
%
Delta-T
°C
Wind Press
QNH
hPa
Press
MSL
hPa
Rain since
9am
mm
Dir  Spd
km/h
Gust
km/h
Spd
kts
Gust
kts
21/11:30pm 11.0 6.6 9.1 88 1.0 NW 22 30 12 16 1009.4 1009.4 0.2
21/11:00pm 11.6 7.6 9.2 85 1.2 NW 20 28 11 15 1009.4 1009.4 0.2
21/10:30pm 12.3 6.4 9.1 81 1.6 NW 30 41 16 22 1009.1 1009.1 0.2
21/10:00pm 12.6 8.7 9.6 82 1.5 NW 20 28 11 15 1009.1 1009.1 0.2
21/09:30pm 12.2 8.0 9.8 85 1.2 NW 22 32 12 17 1008.9 1008.9 0.2
21/09:00pm 12.9 7.4 9.2 78 1.9 NW 28 43 15 23 1008.3 1008.3 0.2
21/08:30pm 12.5 7.6 8.6 77 2.0 NW 24 35 13 19 1007.9 1007.9 0.2

Other formats

Comma delimited format used in spreadsheet applications
http://www.bom.gov.au/fwo/IDS60801/IDS60801.95671.axf

JavaScript Object Notation format (JSON) in row-major order
http://www.bom.gov.au/fwo/IDS60801/IDS60801.95671.json

Data quality

Most of these data are generated automatically and are frequently updated. Quality checks on data are not normally performed. It is possible for incorrect values to appear. Refer to information at About Latest Weather Observations and please check the disclaimer before using these data.